Patterson, Iowa
Current Conditions -  °F | °C
As of 2:54 PM on Wednesday 17 Dec 2014 (Local Time) from KDSM Reporting Station
Broken Clouds Broken Clouds  
Wind Chill: 24°   Ceiling: 26000
Heat Index: 30°   Visibility: 10mi
Dew Point: 14°   Wind: 6mph
Humidity: 51%   Direction: 20°NNE
Pressure: 30.28"   Gusts: NA
Location:  41.35°N, 93.88°W
Report Text: KDSM 172054Z 02005KT 10SM FEW170 FEW230 BKN260 M01/M10 A3028 RMK AO2 SLP267 T10111100 55014
Loading
Personal Weather Stations






























Interactive Weather Map New forecast layout! Learn more

10-Day Weather Forecast

Advertisements
Track Severe Weather on mobile